Time;durP1;ratioP1;P1;durP2;ratioP2;P2;SDS_P1;SDS_P2;PMS_P1;PMS_P2;Temp;Humidity;BMP_temperature;BMP_pressure;BME280_temperature;BME280_humidity;BME280_pressure;Samples;Min_cycle;Max_cycle;Signal;HPM_P1;HPM_P2
2022/03/13 00:01:57;;;;;;;11.70;7.25;;;;;;;11.06;58.22;101421.53;5076689;28;20387;-69
2022/03/13 00:04:23;;;;;;;14.05;7.80;;;;;;;11.09;58.08;101411.84;5076963;28;20024;-69
2022/03/13 00:06:48;;;;;;;13.80;8.05;;;;;;;11.07;58.07;101417.16;5076622;28;20046;-67
2022/03/13 00:09:14;;;;;;;14.77;7.72;;;;;;;11.06;58.01;101423.34;5076403;28;20020;-68
2022/03/13 00:11:40;;;;;;;12.90;7.78;;;;;;;11.03;58.47;101423.69;5095860;28;20111;-67
2022/03/13 00:14:06;;;;;;;13.70;7.35;;;;;;;11.02;58.25;101422.09;5076322;28;20047;-69
2022/03/13 00:16:33;;;;;;;16.33;7.60;;;;;;;11.00;58.32;101424.84;5095381;28;20028;-68
2022/03/13 00:18:58;;;;;;;11.50;7.72;;;;;;;10.99;58.34;101425.81;5077498;28;20467;-68
2022/03/13 00:21:24;;;;;;;13.20;8.25;;;;;;;10.98;58.67;101437.13;5077487;28;20016;-68
2022/03/13 00:23:49;;;;;;;11.95;7.07;;;;;;;10.92;58.81;101432.66;5077296;28;20479;-68
2022/03/13 00:26:16;;;;;;;11.55;7.63;;;;;;;10.93;58.65;101436.84;5095358;28;20030;-69
2022/03/13 00:28:45;;;;;;;10.88;7.00;;;;;;;10.98;58.51;101436.31;5076570;28;20356;-68
2022/03/13 00:31:11;;;;;;;11.20;7.10;;;;;;;10.97;58.60;101419.22;5095314;28;20024;-69
2022/03/13 00:33:37;;;;;;;13.50;7.43;;;;;;;10.96;58.86;101422.75;5095440;28;20035;-70
2022/03/13 00:36:03;;;;;;;12.05;7.50;;;;;;;10.94;58.48;101435.06;5095133;28;20036;-68
2022/03/13 00:38:29;;;;;;;15.55;6.88;;;;;;;10.93;58.50;101429.06;5095537;28;20394;-69
2022/03/13 00:40:57;;;;;;;12.23;7.35;;;;;;;10.96;58.33;101428.75;5095388;28;20028;-69
2022/03/13 00:43:24;;;;;;;10.77;7.15;;;;;;;10.93;58.44;101423.09;5095344;28;20063;-69
2022/03/13 00:45:50;;;;;;;11.57;7.20;;;;;;;10.95;58.62;101415.97;5076603;28;20479;-69
2022/03/13 00:48:17;;;;;;;11.68;7.70;;;;;;;10.99;58.30;101422.41;5075249;28;20040;-69
2022/03/13 00:50:43;;;;;;;11.02;6.93;;;;;;;10.97;58.33;101422.59;5075178;28;20039;-69
2022/03/13 00:53:08;;;;;;;10.48;6.65;;;;;;;10.96;58.18;101421.00;5093215;28;20026;-69
2022/03/13 00:55:34;;;;;;;10.63;7.00;;;;;;;11.00;57.78;101409.31;5075061;28;20479;-70
2022/03/13 00:57:59;;;;;;;12.18;6.68;;;;;;;10.98;57.58;101415.63;5093458;28;20077;-69
2022/03/13 01:00:25;;;;;;;11.93;7.10;;;;;;;10.95;58.05;101415.97;5093233;28;20033;-68
2022/03/13 01:02:51;;;;;;;12.85;7.13;;;;;;;10.98;57.84;101410.47;5076827;28;20081;-69
2022/03/13 01:05:22;;;;;;;12.55;6.53;;;;;;;10.97;57.89;101411.44;5095062;28;20409;-69
2022/03/13 01:07:47;;;;;;;11.13;6.97;;;;;;;10.99;57.49;101418.06;5095003;28;20089;-68
2022/03/13 01:10:13;;;;;;;11.18;7.10;;;;;;;10.97;57.66;101411.44;5076720;28;20023;-68
2022/03/13 01:12:38;;;;;;;11.13;6.88;;;;;;;10.94;57.73;101399.66;5076641;28;20122;-69
2022/03/13 01:15:05;;;;;;;11.73;6.63;;;;;;;10.99;57.61;101396.53;5076657;28;20020;-68
2022/03/13 01:17:30;;;;;;;10.57;6.38;;;;;;;11.00;57.66;101414.47;5094656;28;20035;-68
2022/03/13 01:19:56;;;;;;;14.70;6.40;;;;;;;10.96;57.70;101412.41;5094808;28;20024;-69
2022/03/13 01:22:21;;;;;;;9.32;6.25;;;;;;;10.95;57.64;101405.63;5094570;28;20016;-69
2022/03/13 01:24:47;;;;;;;10.63;6.53;;;;;;;10.95;57.67;101400.47;5094053;28;20470;-69
2022/03/13 01:27:15;;;;;;;10.10;6.35;;;;;;;10.94;57.48;101404.84;5094590;28;20020;-69
2022/03/13 01:29:42;;;;;;;8.50;5.70;;;;;;;10.89;57.45;101391.63;5094486;28;20020;-68
2022/03/13 01:32:09;;;;;;;13.10;6.03;;;;;;;10.93;57.67;101394.66;5076421;28;20048;-68
2022/03/13 01:34:35;;;;;;;8.80;5.78;;;;;;;10.89;57.99;101393.41;5076296;28;20107;-69
2022/03/13 01:37:00;;;;;;;11.85;6.07;;;;;;;10.88;58.07;101396.97;5094391;28;20066;-69
2022/03/13 01:39:26;;;;;;;11.27;5.93;;;;;;;10.84;58.66;101393.91;5076176;28;20059;-68
2022/03/13 01:41:51;;;;;;;11.07;5.50;;;;;;;10.78;58.45;101394.63;5094192;28;20065;-69
2022/03/13 01:44:19;;;;;;;10.38;5.70;;;;;;;10.79;58.84;101389.28;5076095;28;20051;-69
2022/03/13 01:46:45;;;;;;;8.90;6.15;;;;;;;10.82;59.03;101378.59;5094274;28;20082;-69
2022/03/13 01:49:10;;;;;;;8.40;5.30;;;;;;;10.77;59.04;101383.47;5094295;28;20048;-68
2022/03/13 01:51:35;;;;;;;9.00;5.90;;;;;;;10.75;59.10;101369.09;5075930;28;20026;-68
2022/03/13 01:54:05;;;;;;;9.35;5.82;;;;;;;10.76;59.02;101379.28;5094087;28;20381;-68
2022/03/13 01:56:33;;;;;;;8.82;5.28;;;;;;;10.67;59.22;101375.13;5093922;28;20038;-68
2022/03/13 01:58:58;;;;;;;10.95;6.22;;;;;;;10.68;59.18;101368.22;5075709;28;20024;-68
2022/03/13 02:01:26;;;;;;;8.93;5.38;;;;;;;10.63;59.85;101357.56;5093768;28;20054;-69
2022/03/13 02:03:51;;;;;;;8.20;5.43;;;;;;;10.64;59.70;101362.56;5093816;28;20107;-68
2022/03/13 02:06:17;;;;;;;8.10;5.22;;;;;;;10.64;59.24;101356.59;5093840;28;20055;-68
2022/03/13 02:08:47;;;;;;;6.93;5.10;;;;;;;10.66;59.37;101346.88;5075500;28;20020;-69
2022/03/13 02:11:19;;;;;;;8.18;4.90;;;;;;;10.72;59.16;101344.41;5093824;28;20081;-68
2022/03/13 02:13:47;;;;;;;7.15;4.57;;;;;;;10.69;59.34;101344.75;5075606;28;20012;-68
2022/03/13 02:16:14;;;;;;;7.53;5.10;;;;;;;10.60;59.50;101336.25;5075511;28;20016;-69
2022/03/13 02:18:41;;;;;;;7.97;4.90;;;;;;;10.63;59.49;101327.34;5093566;28;20079;-69
2022/03/13 02:21:07;;;;;;;7.35;4.75;;;;;;;10.57;59.79;101339.19;5093536;28;20502;-69
2022/03/13 02:23:33;;;;;;;11.90;4.55;;;;;;;10.59;60.02;101326.91;5093497;28;20032;-69
2022/03/13 02:26:00;;;;;;;6.70;4.55;;;;;;;10.60;59.55;101325.13;5093508;28;20024;-69
2022/03/13 02:28:31;;;;;;;7.15;4.53;;;;;;;10.55;59.80;101325.63;5093323;28;20024;-69
2022/03/13 02:31:02;;;;;;;9.02;5.82;;;;;;;10.54;59.83;101320.66;5093433;28;20036;-68
2022/03/13 02:33:28;;;;;;;7.57;4.90;;;;;;;10.54;59.82;101320.66;5093393;28;20081;-68
2022/03/13 02:36:01;;;;;;;7.60;4.57;;;;;;;10.58;59.69;101322.69;5074761;28;20585;-68
2022/03/13 02:38:28;;;;;;;9.30;4.60;;;;;;;10.60;59.87;101319.97;5093132;28;20395;-68
2022/03/13 02:40:55;;;;;;;7.05;4.78;;;;;;;10.55;59.66;101310.13;5093047;28;20106;-69
2022/03/13 02:43:21;;;;;;;7.72;4.65;;;;;;;10.61;59.59;101318.97;5091154;28;20028;-69
2022/03/13 02:45:47;;;;;;;7.28;4.80;;;;;;;10.57;60.15;101318.50;5091549;28;20500;-70
2022/03/13 02:48:12;;;;;;;8.00;5.00;;;;;;;10.56;59.68;101321.28;5091314;28;20119;-69
2022/03/13 02:50:39;;;;;;;7.30;4.70;;;;;;;10.51;60.07;101311.47;5092865;28;20483;-68
2022/03/13 02:53:06;;;;;;;7.15;4.78;;;;;;;10.53;59.80;101306.09;5092647;28;20024;-69
2022/03/13 02:55:32;;;;;;;8.55;4.78;;;;;;;10.48;59.94;101311.00;5074890;28;20020;-68
2022/03/13 02:57:58;;;;;;;6.72;4.88;;;;;;;10.44;60.23;101302.78;5092962;28;20067;-68
2022/03/13 03:00:43;;;;;;;8.25;4.80;;;;;;;10.43;60.08;101310.72;5093104;28;20048;-68
2022/03/13 03:03:08;;;;;;;7.35;5.10;;;;;;;10.39;60.34;101305.91;5074904;28;20447;-68
2022/03/13 03:05:35;;;;;;;7.53;5.05;;;;;;;10.37;60.06;101310.44;5091371;28;20026;-68
2022/03/13 03:08:00;;;;;;;7.50;5.07;;;;;;;10.43;60.21;101302.97;5074036;28;20119;-69
2022/03/13 03:10:25;;;;;;;6.45;4.85;;;;;;;10.43;59.73;101300.38;5092543;28;20554;-68
2022/03/13 03:12:50;;;;;;;7.63;5.07;;;;;;;10.45;60.12;101299.25;5074824;28;20107;-69
2022/03/13 03:15:19;;;;;;;8.05;4.90;;;;;;;10.45;60.31;101301.81;5092981;28;20024;-68
2022/03/13 03:17:44;;;;;;;7.93;5.28;;;;;;;10.38;60.45;101316.38;5074010;28;20182;-68
2022/03/13 03:20:11;;;;;;;8.25;5.03;;;;;;;10.41;60.30;101308.28;5092965;28;20140;-68
2022/03/13 03:22:37;;;;;;;8.45;5.32;;;;;;;10.42;60.18;101319.47;5074918;28;20062;-68
2022/03/13 03:25:03;;;;;;;7.43;5.13;;;;;;;10.31;60.36;101316.28;5091892;28;20016;-69
2022/03/13 03:27:30;;;;;;;9.00;5.40;;;;;;;10.28;60.37;101314.03;5092895;28;20382;-68
2022/03/13 03:29:56;;;;;;;12.50;6.05;;;;;;;10.29;60.46;101318.22;5092842;28;20070;-68
2022/03/13 03:32:21;;;;;;;10.10;5.97;;;;;;;10.29;60.10;101317.44;5092848;28;20051;-68
2022/03/13 03:34:46;;;;;;;8.40;5.93;;;;;;;10.22;60.68;101312.13;5074630;28;20472;-68
2022/03/13 03:37:12;;;;;;;10.18;6.13;;;;;;;10.22;60.87;101322.44;5092673;28;20035;-68
2022/03/13 03:39:37;;;;;;;9.73;5.13;;;;;;;10.22;60.77;101322.44;5092792;28;20099;-69
2022/03/13 03:42:03;;;;;;;9.63;5.80;;;;;;;10.13;61.09;101323.47;5074525;28;20029;-68
2022/03/13 03:44:28;;;;;;;9.15;5.90;;;;;;;10.09;61.09;101327.38;5092769;28;20028;-69
2022/03/13 03:46:55;;;;;;;11.98;6.15;;;;;;;10.09;60.89;101325.56;5092643;28;20391;-68
2022/03/13 03:49:20;;;;;;;13.57;5.95;;;;;;;10.07;61.42;101319.81;5095694;28;20039;-69
2022/03/13 03:51:46;;;;;;;11.57;5.97;;;;;;;10.03;61.63;101320.28;5096435;28;20028;-69
2022/03/13 03:54:12;;;;;;;10.48;6.10;;;;;;;9.97;61.82;101324.38;5096459;28;20020;-69
2022/03/13 03:56:37;;;;;;;10.30;6.45;;;;;;;9.88;62.29;101326.19;5078147;28;20020;-69
2022/03/13 03:59:04;;;;;;;9.00;5.57;;;;;;;9.93;61.86;101329.06;5077965;28;20502;-67
2022/03/13 04:01:39;;;;;;;10.50;5.53;;;;;;;9.98;61.93;101328.53;5078023;28;20051;-69
2022/03/13 04:04:07;;;;;;;9.82;6.10;;;;;;;9.91;62.23;101340.53;5096136;28;20073;-69
2022/03/13 04:06:33;;;;;;;10.20;5.80;;;;;;;9.90;62.55;101323.44;5077968;28;20024;-68
2022/03/13 04:08:59;;;;;;;9.43;5.85;;;;;;;9.86;62.51;101317.78;5096041;28;20415;-68
2022/03/13 04:11:24;;;;;;;13.15;6.03;;;;;;;9.78;62.87;101325.59;5096110;28;20539;-68
2022/03/13 04:13:49;;;;;;;8.95;5.65;;;;;;;9.75;63.09;101322.53;5096037;28;20020;-68
2022/03/13 04:16:15;;;;;;;8.77;6.18;;;;;;;9.77;63.25;101325.75;5095941;28;20203;-69
2022/03/13 04:18:40;;;;;;;10.32;5.38;;;;;;;9.79;63.01;101316.06;5095969;28;20027;-69
2022/03/13 04:21:06;;;;;;;8.43;5.85;;;;;;;9.79;62.95;101324.63;5077727;28;20435;-68
2022/03/13 04:23:33;;;;;;;9.20;5.80;;;;;;;9.75;63.25;101323.31;5095823;28;20103;-68
2022/03/13 04:25:59;;;;;;;10.43;5.90;;;;;;;9.77;63.06;101315.44;5077638;28;20540;-68
2022/03/13 04:28:25;;;;;;;9.45;5.97;;;;;;;9.77;63.05;101316.22;5095841;28;20023;-69
2022/03/13 04:30:53;;;;;;;10.73;6.18;;;;;;;9.84;63.05;101312.00;5077424;28;20048;-68
2022/03/13 04:33:19;;;;;;;10.00;5.90;;;;;;;9.76;63.29;101316.41;5077500;28;20467;-68
2022/03/13 04:35:45;;;;;;;10.80;6.13;;;;;;;9.81;63.13;101308.94;5077390;28;20031;-69
2022/03/13 04:38:10;;;;;;;10.40;6.13;;;;;;;9.82;63.17;101315.72;5077413;28;20439;-68
2022/03/13 04:40:35;;;;;;;9.85;6.50;;;;;;;9.78;63.19;101319.59;5077245;28;20028;-69
2022/03/13 04:43:02;;;;;;;8.52;5.68;;;;;;;9.77;63.00;101298.16;5077218;28;20036;-69
2022/03/13 04:45:28;;;;;;;9.55;6.18;;;;;;;9.86;62.75;101314.41;5077173;28;20123;-69
2022/03/13 04:47:53;;;;;;;12.15;6.68;;;;;;;9.83;62.82;101320.72;5095387;28;20034;-69
2022/03/13 04:50:19;;;;;;;10.88;6.68;;;;;;;9.87;62.65;101321.19;5095339;28;20039;-69
2022/03/13 04:52:44;;;;;;;11.07;7.22;;;;;;;9.85;62.82;101312.81;5095242;28;20050;-70
2022/03/13 04:55:10;;;;;;;11.57;7.25;;;;;;;9.89;62.79;101317.44;5095294;28;20099;-68
2022/03/13 04:57:35;;;;;;;12.23;6.95;;;;;;;9.74;62.74;101289.97;5077027;28;20111;-69
2022/03/13 05:00:01;;;;;;;12.25;7.82;;;;;;;9.89;62.30;101308.91;5076012;28;20024;-69
2022/03/13 05:02:27;;;;;;;14.80;7.57;;;;;;;9.77;62.60;101318.00;5094970;28;20459;-69
2022/03/13 05:04:53;;;;;;;16.75;8.10;;;;;;;9.77;62.44;101305.91;5094997;28;20035;-69
2022/03/13 05:07:19;;;;;;;14.02;8.32;;;;;;;9.84;62.02;101301.69;5076857;28;20468;-69
2022/03/13 05:09:44;;;;;;;13.80;8.75;;;;;;;9.76;62.14;101303.50;5095002;28;20015;-68
2022/03/13 05:12:10;;;;;;;15.05;9.07;;;;;;;9.71;62.33;101304.78;5094945;28;20024;-69
2022/03/13 05:14:36;;;;;;;14.85;8.88;;;;;;;9.74;61.90;101303.66;5076638;28;20096;-69
2022/03/13 05:17:02;;;;;;;14.93;9.15;;;;;;;9.69;62.18;101306.72;5076620;28;20027;-69
2022/03/13 05:19:28;;;;;;;15.32;9.43;;;;;;;9.69;61.83;101306.72;5094750;28;20028;-68
2022/03/13 05:21:53;;;;;;;21.50;9.80;;;;;;;9.64;61.99;101314.19;5076526;28;20380;-69
2022/03/13 05:24:18;;;;;;;13.65;9.20;;;;;;;9.66;61.65;101314.81;5094655;28;20028;-69
2022/03/13 05:26:44;;;;;;;18.95;9.88;;;;;;;9.66;61.90;101312.22;5094596;28;20074;-69
2022/03/13 05:29:10;;;;;;;20.65;10.30;;;;;;;9.63;61.75;101309.19;5094521;28;20097;-69
2022/03/13 05:31:35;;;;;;;16.60;9.50;;;;;;;9.60;61.40;101294.84;5094478;28;20024;-68
2022/03/13 05:34:01;;;;;;;18.58;10.48;;;;;;;9.66;61.22;101309.66;5094501;28;20020;-68
2022/03/13 05:36:26;;;;;;;19.05;10.05;;;;;;;9.64;60.78;101314.19;5094330;28;20475;-69
2022/03/13 05:38:51;;;;;;;19.25;10.73;;;;;;;9.60;60.83;101302.59;5076157;28;20489;-68
2022/03/13 05:41:19;;;;;;;18.10;11.02;;;;;;;9.61;61.29;101300.81;5094431;28;20073;-68
2022/03/13 05:43:44;;;;;;;17.15;10.48;;;;;;;9.55;61.17;101297.16;5076038;28;20019;-68
2022/03/13 05:46:09;;;;;;;17.42;11.10;;;;;;;9.53;61.05;101295.69;5094190;28;20475;-68
2022/03/13 05:48:35;;;;;;;18.35;10.70;;;;;;;9.55;61.36;101297.16;5094006;28;20093;-69
2022/03/13 05:51:00;;;;;;;20.55;11.88;;;;;;;9.49;60.97;101298.63;5075992;28;20024;-68
2022/03/13 05:53:25;;;;;;;16.48;10.45;;;;;;;9.41;60.94;101297.84;5075881;28;20107;-68
2022/03/13 05:55:52;;;;;;;18.08;10.93;;;;;;;9.32;61.58;101304.78;5075821;28;20020;-68
2022/03/13 05:58:18;;;;;;;17.60;10.90;;;;;;;9.31;61.24;101313.47;5075614;28;20398;-68
2022/03/13 06:00:46;;;;;;;21.98;11.52;;;;;;;9.31;61.34;101305.75;5093995;28;20467;-69
2022/03/13 06:03:12;;;;;;;18.58;11.38;;;;;;;9.36;61.10;101315.59;5075611;28;20039;-68
2022/03/13 06:05:37;;;;;;;24.75;12.25;;;;;;;9.34;61.08;101308.00;5075649;28;20024;-68
2022/03/13 06:08:03;;;;;;;20.55;11.93;;;;;;;9.26;60.77;101306.25;5093841;28;20041;-68
2022/03/13 06:10:29;;;;;;;19.35;11.48;;;;;;;9.24;61.18;101303.03;5092293;28;20031;-69
2022/03/13 06:12:55;;;;;;;18.73;12.63;;;;;;;9.22;60.94;101304.16;5075530;28;20031;-69
2022/03/13 06:15:20;;;;;;;24.60;12.73;;;;;;;9.30;61.04;101311.09;5092374;28;20020;-69
2022/03/13 06:17:48;;;;;;;20.17;12.10;;;;;;;9.18;61.04;101308.84;5075535;28;20022;-68
2022/03/13 06:20:14;;;;;;;20.13;12.48;;;;;;;9.21;61.47;101305.94;5093591;28;20028;-69
2022/03/13 06:22:42;;;;;;;22.15;13.10;;;;;;;9.15;61.51;101314.34;5093536;28;20043;-69
2022/03/13 06:25:09;;;;;;;20.60;12.68;;;;;;;9.17;61.44;101316.75;5075388;28;20028;-69
2022/03/13 06:27:35;;;;;;;20.15;12.63;;;;;;;9.27;61.23;101320.75;5093575;28;20050;-68
2022/03/13 06:30:10;;;;;;;23.40;12.98;;;;;;;9.20;61.45;101321.56;5075284;28;20027;-70
2022/03/13 06:32:36;;;;;;;18.90;12.23;;;;;;;9.25;61.56;101324.47;5093424;28;20430;-67
2022/03/13 06:35:02;;;;;;;22.90;13.23;;;;;;;9.23;61.18;101318.66;5092051;28;20016;-69
2022/03/13 06:37:28;;;;;;;23.75;12.95;;;;;;;9.21;61.43;101321.41;5093262;28;20123;-68
2022/03/13 06:39:53;;;;;;;20.60;12.95;;;;;;;9.30;61.11;101319.63;5075197;28;20368;-68
2022/03/13 06:42:18;;;;;;;21.65;13.00;;;;;;;9.27;61.52;101323.34;5093142;28;20031;-69
2022/03/13 06:44:44;;;;;;;22.30;13.07;;;;;;;9.31;61.17;101326.38;5075201;28;20028;-68
2022/03/13 06:47:09;;;;;;;20.15;12.38;;;;;;;9.22;61.25;101322.22;5092347;28;20059;-68
2022/03/13 06:49:35;;;;;;;24.40;13.05;;;;;;;9.31;61.51;101328.16;5074821;28;20093;-69
2022/03/13 06:52:00;;;;;;;20.60;12.80;;;;;;;9.23;61.58;101327.19;5092029;28;20024;-69
2022/03/13 06:54:25;;;;;;;20.20;13.32;;;;;;;9.35;60.92;101324.28;5075019;28;20115;-70
2022/03/13 06:56:50;;;;;;;21.08;12.82;;;;;;;9.35;61.32;101324.28;5093102;28;20031;-67
2022/03/13 06:59:16;;;;;;;22.20;13.93;;;;;;;9.32;60.81;101332.34;5093602;28;20431;-68
2022/03/13 07:01:42;;;;;;;23.55;13.25;;;;;;;9.27;61.39;101333.66;5093197;28;20024;-69
2022/03/13 07:04:07;;;;;;;20.48;12.23;;;;;;;9.34;60.71;101327.81;5091696;28;20027;-68
2022/03/13 07:06:33;;;;;;;20.67;11.93;;;;;;;9.35;60.44;101325.09;5074894;28;20078;-68
2022/03/13 07:08:59;;;;;;;20.35;12.57;;;;;;;9.34;60.83;101333.78;5093035;28;20021;-67
2022/03/13 07:11:26;;;;;;;21.15;12.50;;;;;;;9.34;60.38;101333.78;5074917;28;20016;-68
2022/03/13 07:13:51;;;;;;;24.75;13.48;;;;;;;9.45;60.37;101328.28;5074926;28;20017;-68
2022/03/13 07:16:17;;;;;;;20.08;12.60;;;;;;;9.42;60.19;101323.44;5074788;28;20089;-68
2022/03/13 07:18:42;;;;;;;20.92;12.52;;;;;;;9.39;60.75;101328.94;5092910;28;20028;-69
2022/03/13 07:21:09;;;;;;;22.35;12.27;;;;;;;9.42;60.63;101327.81;5093006;28;20520;-68
2022/03/13 07:23:34;;;;;;;22.00;13.23;;;;;;;9.40;60.68;101329.75;5094941;28;20031;-68
2022/03/13 07:25:59;;;;;;;21.60;12.85;;;;;;;9.45;60.43;101330.06;5078759;28;20024;-69
2022/03/13 07:28:26;;;;;;;21.90;12.63;;;;;;;9.54;59.73;101331.63;5096964;28;20032;-68
2022/03/13 07:30:51;;;;;;;20.80;12.88;;;;;;;9.58;60.09;101332.09;5096925;28;20065;-69
2022/03/13 07:33:17;;;;;;;24.15;12.60;;;;;;;9.62;59.39;101335.97;5096807;28;20020;-68
2022/03/13 07:35:44;;;;;;;22.63;13.20;;;;;;;9.53;60.08;101329.25;5096851;28;20020;-71
2022/03/13 07:38:10;;;;;;;19.25;11.90;;;;;;;9.56;60.23;101337.44;5078395;28;20592;-69
2022/03/13 07:40:35;;;;;;;20.52;12.38;;;;;;;9.54;60.44;101339.38;5096486;28;20103;-70
2022/03/13 07:43:00;;;;;;;23.15;12.98;;;;;;;9.64;59.48;101341.78;5096632;28;20490;-69
2022/03/13 07:45:26;;;;;;;19.00;12.73;;;;;;;9.68;59.67;101336.09;5078277;28;20034;-69
2022/03/13 07:47:54;;;;;;;19.17;12.10;;;;;;;9.79;59.22;101332.34;5078117;28;20454;-69
2022/03/13 07:50:20;;;;;;;22.27;12.75;;;;;;;9.78;59.22;101340.25;5096457;28;20398;-70
2022/03/13 07:52:45;;;;;;;20.50;12.57;;;;;;;9.91;58.51;101349.06;5078362;28;20110;-69
2022/03/13 07:55:11;;;;;;;22.02;12.85;;;;;;;10.01;58.42;101350.63;5096367;28;20016;-70
2022/03/13 07:57:37;;;;;;;24.63;13.38;;;;;;;10.02;58.16;101340.16;5096329;28;20028;-68
2022/03/13 08:00:02;;;;;;;20.23;12.82;;;;;;;9.93;58.22;101344.56;5096439;28;20024;-69
2022/03/13 08:02:28;;;;;;;21.23;12.45;;;;;;;10.01;58.41;101337.72;5096185;28;20028;-69
2022/03/13 08:04:54;;;;;;;21.25;12.50;;;;;;;10.04;58.09;101345.97;5078141;28;20471;-70
2022/03/13 08:07:19;;;;;;;23.05;12.57;;;;;;;10.02;57.90;101347.91;5096230;28;20046;-68
2022/03/13 08:09:44;;;;;;;22.85;12.63;;;;;;;10.08;57.88;101341.25;5096143;28;20395;-69
2022/03/13 08:12:10;;;;;;;24.20;12.60;;;;;;;10.14;57.54;101341.38;5096069;28;20390;-69
2022/03/13 08:14:35;;;;;;;23.98;12.52;;;;;;;10.22;57.17;101342.31;5077851;28;20023;-69
2022/03/13 08:17:00;;;;;;;19.80;12.07;;;;;;;10.28;57.24;101336.50;5095945;28;20368;-69
2022/03/13 08:19:26;;;;;;;19.15;11.80;;;;;;;10.43;57.17;101329.59;5078219;28;20435;-68
2022/03/13 08:21:51;;;;;;;24.67;12.70;;;;;;;10.77;56.02;101325.81;5094831;28;20020;-69
2022/03/13 08:24:17;;;;;;;18.77;12.25;;;;;;;11.06;54.98;101314.69;5096219;28;20023;-68
2022/03/13 08:26:43;;;;;;;20.52;11.88;;;;;;;10.86;55.26;101311.03;5077847;28;20020;-69
2022/03/13 08:29:10;;;;;;;21.42;11.73;;;;;;;11.01;54.99;101322.97;5096175;28;20031;-67
2022/03/13 08:31:36;;;;;;;21.60;13.02;;;;;;;10.99;55.20;101319.78;5095765;28;20027;-69
2022/03/13 08:34:09;;;;;;;18.17;12.40;;;;;;;10.93;55.01;101319.66;5094701;28;20391;-68
2022/03/13 08:36:40;;;;;;;20.10;12.25;;;;;;;12.12;51.73;101320.44;5095350;28;20024;-69
2022/03/13 08:39:06;;;;;;;19.60;12.60;;;;;;;12.31;51.54;101313.84;5095546;28;20020;-68
2022/03/13 08:41:32;;;;;;;17.60;11.98;;;;;;;13.13;49.12;101317.69;5077445;28;20055;-69
2022/03/13 08:43:58;;;;;;;18.73;12.10;;;;;;;14.88;45.22;101319.59;5077167;28;20115;-69
2022/03/13 08:46:23;;;;;;;18.60;12.15;;;;;;;13.26;47.97;101308.22;5077270;28;20063;-69
2022/03/13 08:48:49;;;;;;;17.73;12.32;;;;;;;13.63;47.99;101307.97;5095238;28;20123;-69
2022/03/13 08:51:15;;;;;;;19.48;12.45;;;;;;;12.67;49.71;101305.19;5095369;28;20400;-68
2022/03/13 08:53:41;;;;;;;18.27;12.10;;;;;;;12.83;49.91;101305.72;5077162;28;20484;-69
2022/03/13 08:56:07;;;;;;;20.23;12.18;;;;;;;11.87;51.74;101305.22;5095243;28;20435;-68
2022/03/13 08:58:33;;;;;;;19.05;13.13;;;;;;;11.47;53.22;101306.50;5095196;28;20031;-69
2022/03/13 09:01:00;;;;;;;21.02;12.63;;;;;;;11.30;53.54;101304.09;5095125;28;20073;-69
2022/03/13 09:03:26;;;;;;;19.02;12.05;;;;;;;11.22;54.07;101287.84;5095080;28;20077;-68
2022/03/13 09:05:52;;;;;;;19.02;12.27;;;;;;;11.29;53.98;101299.91;5093610;28;20381;-69
2022/03/13 09:08:17;;;;;;;20.42;12.68;;;;;;;10.88;55.30;101291.78;5074474;28;20023;-69
2022/03/13 09:10:43;;;;;;;23.20;12.57;;;;;;;11.07;54.16;101295.59;5075737;28;20032;-69
2022/03/13 09:13:08;;;;;;;20.75;12.27;;;;;;;10.95;54.39;101303.00;5093234;28;20028;-68
2022/03/13 09:15:33;;;;;;;21.42;12.48;;;;;;;10.95;55.47;101308.16;5094911;28;20028;-70
2022/03/13 09:18:02;;;;;;;19.40;11.85;;;;;;;11.36;53.78;101312.91;5076578;28;20032;-68
2022/03/13 09:20:28;;;;;;;18.38;11.57;;;;;;;10.90;54.86;101314.84;5094477;28;20386;-70
2022/03/13 09:22:53;;;;;;;19.30;12.38;;;;;;;10.82;55.02;101306.19;5094313;28;20135;-70
2022/03/13 09:25:20;;;;;;;18.38;12.13;;;;;;;10.89;54.53;101302.91;5092640;28;20035;-70
2022/03/13 09:27:45;;;;;;;22.25;12.75;;;;;;;11.11;54.40;101307.22;5093793;28;20442;-67
2022/03/13 09:30:11;;;;;;;18.70;11.98;;;;;;;11.56;52.82;101308.00;5093584;28;20039;-69
2022/03/13 09:32:37;;;;;;;18.45;11.35;;;;;;;14.22;46.52;101322.94;5093260;28;20086;-70
2022/03/13 09:35:02;;;;;;;22.60;11.30;;;;;;;16.31;41.63;101321.22;5093692;28;20074;-68
2022/03/13 09:37:28;;;;;;;18.58;11.85;;;;;;;16.35;40.25;101304.94;5075669;28;20119;-69
2022/03/13 09:39:53;;;;;;;16.55;11.80;;;;;;;15.18;42.27;101303.50;5094625;28;20027;-69
2022/03/13 09:42:19;;;;;;;17.75;11.63;;;;;;;16.31;39.93;101308.19;5094324;28;20028;-69
2022/03/13 09:44:44;;;;;;;19.40;11.77;;;;;;;16.09;40.68;101311.16;5093985;28;20028;-70
2022/03/13 09:47:11;;;;;;;19.02;11.77;;;;;;;15.68;40.87;101306.34;5092434;28;20028;-69
2022/03/13 09:49:36;;;;;;;26.05;11.95;;;;;;;15.03;41.45;101301.94;5093475;28;20071;-72
2022/03/13 09:52:02;;;;;;;17.58;11.55;;;;;;;15.58;40.04;101311.97;5092616;28;20059;-69
2022/03/13 09:54:28;;;;;;;19.02;12.05;;;;;;;16.49;39.20;101295.22;5074113;28;20074;-69
2022/03/13 09:56:53;;;;;;;18.05;11.75;;;;;;;17.02;37.50;101291.34;5074824;28;20491;-69
2022/03/13 09:59:19;;;;;;;17.98;11.68;;;;;;;17.71;35.84;101305.78;5092403;28;20020;-69
2022/03/13 10:01:44;;;;;;;18.63;11.93;;;;;;;17.78;35.91;101293.47;5093628;28;20106;-70
2022/03/13 10:04:11;;;;;;;18.17;12.20;;;;;;;17.13;36.86;101296.63;5093401;28;20501;-68
2022/03/13 10:07:07;;;;;;;23.05;12.25;;;;;;;16.58;37.51;101296.53;5091712;28;20122;-68
2022/03/13 10:09:33;;;;;;;17.75;12.73;;;;;;;16.41;37.87;101277.22;5090691;28;20380;-69
2022/03/13 10:12:09;;;;;;;20.20;11.25;;;;;;;16.33;38.38;101291.31;5093208;28;20027;-69
2022/03/13 10:14:38;;;;;;;17.85;12.15;;;;;;;15.20;40.23;101291.09;5093318;28;20031;-70
2022/03/13 10:17:05;;;;;;;19.65;12.00;;;;;;;14.87;40.48;101290.16;5093466;28;20027;-71
2022/03/13 10:19:31;;;;;;;20.63;11.50;;;;;;;14.88;41.26;101298.75;5092804;28;20064;-69
2022/03/13 10:22:03;;;;;;;19.17;12.38;;;;;;;15.48;40.07;101283.78;5091628;28;20028;-69
2022/03/13 10:24:44;;;;;;;18.88;11.80;;;;;;;15.86;39.54;101277.81;5090410;28;20036;-69
2022/03/13 10:27:20;;;;;;;20.38;12.15;;;;;;;15.91;40.13;101274.56;5074757;28;20476;-69
2022/03/13 10:29:47;;;;;;;19.35;11.70;;;;;;;15.85;39.04;101285.81;5093445;28;20382;-69
2022/03/13 10:32:12;;;;;;;18.83;11.38;;;;;;;15.71;39.67;101279.91;5093365;28;20108;-68
2022/03/13 10:34:38;;;;;;;17.77;12.05;;;;;;;16.11;38.60;101262.22;5093442;28;20056;-68
2022/03/13 10:37:05;;;;;;;20.60;11.93;;;;;;;15.74;39.82;101282.88;5093433;28;20020;-69
2022/03/13 10:39:33;;;;;;;15.77;10.63;;;;;;;15.18;40.99;101283.47;5093390;28;20470;-68
2022/03/13 10:42:02;;;;;;;17.45;11.10;;;;;;;16.14;40.22;101279.22;5093272;28;20546;-69
2022/03/13 10:44:34;;;;;;;16.05;10.52;;;;;;;16.30;40.07;101272.69;5074177;28;20070;-67
2022/03/13 10:47:08;;;;;;;17.60;11.02;;;;;;;16.13;40.47;101275.03;5093441;28;20027;-68
2022/03/13 10:49:45;;;;;;;15.23;10.73;;;;;;;16.19;39.77;101277.56;5093972;28;20082;-68
2022/03/13 10:52:25;;;;;;;18.42;9.95;;;;;;;16.35;39.33;101280.69;5075478;28;20402;-68
2022/03/13 10:54:51;;;;;;;17.27;9.35;;;;;;;15.87;40.42;101276.78;5093364;28;20362;-69
2022/03/13 10:57:16;;;;;;;14.52;9.57;;;;;;;15.36;41.36;101277.59;5074313;28;20030;-69
2022/03/13 10:59:42;;;;;;;17.75;10.30;;;;;;;15.55;41.79;101275.94;5093186;28;20031;-70
2022/03/13 11:02:18;;;;;;;13.15;9.57;;;;;;;15.54;41.27;101275.13;5093203;28;20390;-69
2022/03/13 11:04:58;;;;;;;12.77;9.30;;;;;;;15.60;41.16;101272.72;5093142;28;20486;-68
2022/03/13 11:07:26;;;;;;;16.50;9.75;;;;;;;15.70;40.80;101268.66;5075016;28;20020;-69
2022/03/13 11:09:53;;;;;;;14.90;9.50;;;;;;;15.66;40.56;101283.09;5092929;28;20016;-69
2022/03/13 11:12:22;;;;;;;15.85;10.02;;;;;;;15.69;41.22;101272.28;5074961;28;20054;-69
2022/03/13 11:14:49;;;;;;;14.38;9.90;;;;;;;15.74;40.74;101263.84;5093045;28;20538;-69